Time;durP1;ratioP1;P1;durP2;ratioP2;P2;SDS_P1;SDS_P2;PMS_P1;PMS_P2;Temp;Humidity;BMP_temperature;BMP_pressure;BME280_temperature;BME280_humidity;BME280_pressure;Samples;Min_cycle;Max_cycle;Signal;HPM_P1;HPM_P2
2021/12/18 00:02:10;;;;;;;2.53;1.80;;;;;;;9.08;100.00;101971.81;5038035;28;20045;-67
2021/12/18 00:04:39;;;;;;;3.78;1.90;;;;;;;9.05;100.00;101974.22;5052369;28;20568;-68
2021/12/18 00:07:08;;;;;;;4.60;2.95;;;;;;;9.01;100.00;101984.38;5052065;28;20088;-68
2021/12/18 00:09:36;;;;;;;5.90;3.25;;;;;;;8.96;100.00;101975.50;5052429;28;20048;-68
2021/12/18 00:12:06;;;;;;;6.88;2.60;;;;;;;8.84;100.00;101977.38;5051899;28;20526;-69
2021/12/18 00:14:36;;;;;;;4.57;2.70;;;;;;;8.72;100.00;101979.28;5051937;28;20045;-69
2021/12/18 00:17:05;;;;;;;5.57;3.03;;;;;;;8.65;100.00;101987.47;5052475;28;20073;-68
2021/12/18 00:19:33;;;;;;;6.30;2.90;;;;;;;8.56;100.00;101975.81;5052577;28;20056;-69
2021/12/18 00:22:02;;;;;;;5.05;2.50;;;;;;;8.55;100.00;101980.91;5051835;28;20049;-68
2021/12/18 00:24:30;;;;;;;2.88;2.15;;;;;;;8.52;100.00;101973.88;5049869;28;20479;-68
2021/12/18 00:26:59;;;;;;;8.65;3.22;;;;;;;8.49;100.00;101980.53;5056077;28;20534;-68
2021/12/18 00:29:27;;;;;;;5.53;3.47;;;;;;;8.47;100.00;101980.44;5052235;28;20041;-69
2021/12/18 00:31:58;;;;;;;4.57;2.97;;;;;;;8.41;100.00;101972.38;5051933;28;20552;-68
2021/12/18 00:34:26;;;;;;;6.82;3.60;;;;;;;8.37;100.00;101968.69;5051764;28;20047;-68
2021/12/18 00:36:55;;;;;;;7.97;4.05;;;;;;;8.36;100.00;101973.75;5052016;28;20045;-68
2021/12/18 00:39:23;;;;;;;7.70;3.85;;;;;;;8.35;100.00;101966.81;5037786;28;20055;-67
2021/12/18 00:42:08;;;;;;;5.90;2.90;;;;;;;8.33;100.00;101968.41;5051880;28;20062;-68
2021/12/18 00:44:37;;;;;;;7.70;3.85;;;;;;;8.30;100.00;101963.09;5037096;28;20115;-69
2021/12/18 00:47:07;;;;;;;7.10;3.63;;;;;;;8.25;100.00;101955.09;5052069;28;20088;-68
2021/12/18 00:49:36;;;;;;;10.00;3.60;;;;;;;8.23;100.00;101956.69;5051596;28;20122;-69
2021/12/18 00:52:06;;;;;;;7.72;3.40;;;;;;;8.21;100.00;101958.28;5051214;28;20075;-68
2021/12/18 00:54:35;;;;;;;8.88;3.95;;;;;;;8.19;100.00;101954.72;5050747;28;20091;-69
2021/12/18 00:57:03;;;;;;;8.98;4.03;;;;;;;8.16;100.00;101957.13;5051203;28;20045;-69
2021/12/18 00:59:34;;;;;;;9.23;4.82;;;;;;;8.15;100.00;101957.91;5051138;28;20067;-69
2021/12/18 01:02:03;;;;;;;6.05;3.92;;;;;;;8.11;100.00;101959.44;5037884;28;20128;-68
2021/12/18 01:04:33;;;;;;;6.43;4.20;;;;;;;8.10;100.00;101960.22;5050922;28;20048;-68
2021/12/18 01:07:02;;;;;;;4.70;3.00;;;;;;;8.07;100.00;101960.06;5050704;28;20498;-67
2021/12/18 01:09:45;;;;;;;6.47;3.10;;;;;;;8.04;100.00;101954.72;5051625;28;20049;-69
2021/12/18 01:12:13;;;;;;;6.07;3.13;;;;;;;8.01;100.00;101945.91;5050366;28;20518;-70
2021/12/18 01:14:56;;;;;;;7.20;3.92;;;;;;;7.96;100.00;101953.38;5051602;28;20049;-69
2021/12/18 01:22:59;;;;;;;7.95;4.20;;;;;;;7.94;100.00;101957.53;5020574;28;20079;-68
2021/12/18 01:25:27;;;;;;;7.78;3.80;;;;;;;7.92;100.00;101959.13;5034293;28;20388;-68
2021/12/18 01:27:56;;;;;;;7.40;3.95;;;;;;;7.92;100.00;101953.97;5031757;28;20057;-67
2021/12/18 01:30:24;;;;;;;7.95;4.03;;;;;;;7.92;100.00;101956.56;5032549;28;20041;-67
2021/12/18 01:32:54;;;;;;;5.68;3.05;;;;;;;7.91;100.00;101947.94;5030520;28;20049;-67
2021/12/18 01:35:25;;;;;;;6.95;3.35;;;;;;;7.92;100.00;101953.97;5030800;28;20104;-67
2021/12/18 01:37:53;;;;;;;6.53;3.35;;;;;;;7.92;100.00;101951.41;5030845;28;20076;-67
2021/12/18 01:40:23;;;;;;;7.95;3.58;;;;;;;7.92;100.00;101953.97;5033746;28;20042;-67
2021/12/18 01:46:08;;;;;;;4.82;3.10;;;;;;;7.89;100.00;101946.09;5032243;28;20057;-68
2021/12/18 01:51:33;;;;;;;8.40;3.28;;;;;;;7.86;100.00;101944.22;5031471;28;20565;-69
2021/12/18 01:54:02;;;;;;;4.50;2.67;;;;;;;7.84;100.00;101939.78;5017989;28;20128;-68
2021/12/18 01:56:31;;;;;;;8.32;3.47;;;;;;;7.79;100.00;101933.44;5029925;28;20053;-68
2021/12/18 01:58:59;;;;;;;7.57;3.30;;;;;;;7.76;100.00;101937.63;5030802;28;20041;-68
2021/12/18 02:01:28;;;;;;;10.05;3.65;;;;;;;7.75;100.00;101935.84;5030836;28;20042;-68
2021/12/18 02:03:57;;;;;;;8.23;3.70;;;;;;;7.73;100.00;101932.28;5028317;28;20076;-67
2021/12/18 02:06:27;;;;;;;8.25;3.75;;;;;;;7.72;100.00;101935.66;5028681;28;20099;-67
2021/12/18 02:08:55;;;;;;;6.55;3.63;;;;;;;7.69;100.00;101939.72;5030089;28;20135;-67
2021/12/18 02:11:31;;;;;;;7.55;4.28;;;;;;;7.66;100.00;101937.88;5029894;28;20041;-67
2021/12/18 02:20:00;;;;;;;6.55;3.20;;;;;;;7.61;100.00;101938.41;5037121;28;20059;-67
2021/12/18 02:22:30;;;;;;;5.72;2.55;;;;;;;7.56;100.00;101943.28;5053087;28;20052;-67
2021/12/18 02:24:59;;;;;;;3.80;2.50;;;;;;;7.52;100.00;101928.44;5050280;28;20060;-67
2021/12/18 02:27:27;;;;;;;4.72;2.60;;;;;;;7.52;100.00;101926.72;5050223;28;20460;-67
2021/12/18 02:29:56;;;;;;;6.80;2.85;;;;;;;7.51;100.00;101934.34;5049843;28;20740;-68
2021/12/18 02:32:24;;;;;;;5.38;2.95;;;;;;;7.50;100.00;101927.44;5049637;28;20147;-67
2021/12/18 02:34:58;;;;;;;6.13;2.75;;;;;;;7.49;100.00;101926.56;5050161;28;20077;-67
2021/12/18 02:37:29;;;;;;;6.75;2.80;;;;;;;7.47;100.00;101916.97;5049375;28;20052;-67
2021/12/18 02:42:41;;;;;;;7.15;2.67;;;;;;;7.41;100.00;101912.31;5047799;28;20132;-67
2021/12/18 02:45:12;;;;;;;5.25;1.80;;;;;;;7.41;100.00;101914.88;5049739;28;20045;-68
2021/12/18 02:47:41;;;;;;;4.13;1.58;;;;;;;7.40;100.00;101901.91;5049414;28;20059;-67
2021/12/18 02:50:10;;;;;;;2.35;1.73;;;;;;;7.40;100.00;101915.69;5050014;28;20045;-67
2021/12/18 02:52:39;;;;;;;7.88;2.42;;;;;;;7.39;100.00;101919.06;5053140;28;20597;-67
2021/12/18 02:55:09;;;;;;;6.07;1.95;;;;;;;7.30;100.00;101919.38;5050657;28;20052;-68
2021/12/18 02:57:38;;;;;;;2.88;1.65;;;;;;;7.25;100.00;101917.31;5050420;28;20045;-68
2021/12/18 03:00:08;;;;;;;4.60;2.13;;;;;;;7.23;100.00;101916.34;5049766;28;20065;-68
2021/12/18 03:02:41;;;;;;;5.05;1.88;;;;;;;7.25;100.00;101915.63;5049297;28;20056;-67
2021/12/18 03:05:15;;;;;;;4.65;2.03;;;;;;;7.27;100.00;101919.19;5049630;28;20051;-66
2021/12/18 03:07:44;;;;;;;3.17;1.92;;;;;;;7.27;100.00;101911.47;5051692;28;20059;-67
2021/12/18 03:24:30;;;;;;;;;;;;;;;7.07;100.00;101914.50;4993567;28;20042;-67
2021/12/18 03:27:00;;;;;;;5.53;2.50;;;;;;;7.06;100.00;101908.47;5045378;28;20035;-67
2021/12/18 03:29:29;;;;;;;11.20;2.38;;;;;;;7.11;100.00;101906.19;5053792;28;20109;-67
2021/12/18 03:31:57;;;;;;;4.43;2.30;;;;;;;7.13;100.00;101904.59;5049962;28;20132;-67
2021/12/18 03:34:26;;;;;;;2.15;1.52;;;;;;;7.15;100.00;101897.84;5054805;28;20041;-68
2021/12/18 03:36:54;;;;;;;3.08;1.65;;;;;;;7.12;100.00;101888.28;5054609;28;20080;-67
2021/12/18 03:39:23;;;;;;;4.93;1.73;;;;;;;7.14;100.00;101890.91;5041187;28;20118;-67
2021/12/18 03:41:51;;;;;;;4.30;2.20;;;;;;;7.10;100.00;101883.78;5053642;28;20061;-67
2021/12/18 03:44:22;;;;;;;5.50;2.05;;;;;;;7.17;100.00;101891.13;5053531;28;20518;-68
2021/12/18 03:46:51;;;;;;;6.22;2.10;;;;;;;7.23;100.00;101898.31;5053156;28;20060;-68
2021/12/18 03:49:19;;;;;;;2.53;1.83;;;;;;;7.28;100.00;101902.06;5053208;28;20077;-68
2021/12/18 03:51:48;;;;;;;4.78;2.13;;;;;;;7.30;100.00;101895.31;5056034;28;20080;-68
2021/12/18 03:54:16;;;;;;;4.10;2.30;;;;;;;7.32;100.00;101894.63;5053640;28;20072;-68
2021/12/18 03:56:45;;;;;;;4.30;1.95;;;;;;;7.31;100.00;101887.69;5052575;28;20053;-67
2021/12/18 03:59:14;;;;;;;4.03;2.08;;;;;;;7.28;100.00;101892.69;5053274;28;20136;-67
2021/12/18 04:01:44;;;;;;;3.58;2.33;;;;;;;7.23;100.00;101888.91;5052272;28;20060;-67
2021/12/18 04:04:12;;;;;;;2.72;1.73;;;;;;;7.22;100.00;101882.00;5052223;28;20521;-67
2021/12/18 04:06:42;;;;;;;6.28;2.35;;;;;;;7.21;100.00;101882.78;5052247;28;20087;-66
2021/12/18 04:09:12;;;;;;;4.97;2.53;;;;;;;7.20;100.00;101877.53;5052346;28;20695;-66
2021/12/18 04:11:41;;;;;;;4.75;2.45;;;;;;;7.19;100.00;101874.06;5052690;28;20250;-67
2021/12/18 04:14:10;;;;;;;4.00;2.13;;;;;;;7.23;100.00;101873.47;5051699;28;20138;-67
2021/12/18 04:16:39;;;;;;;5.55;3.08;;;;;;;7.27;100.00;101866.81;5052602;28;20107;-67
2021/12/18 04:19:09;;;;;;;6.30;2.65;;;;;;;7.29;100.00;101860.97;5051221;28;20052;-67
2021/12/18 04:21:44;;;;;;;3.35;2.00;;;;;;;7.29;100.00;101860.97;5052909;28;20053;-67
2021/12/18 04:24:12;;;;;;;3.40;2.05;;;;;;;7.28;100.00;101861.78;5051939;28;20049;-67
2021/12/18 04:26:41;;;;;;;3.65;2.50;;;;;;;7.29;100.00;101862.66;5052045;28;20371;-67
2021/12/18 04:29:09;;;;;;;6.60;2.05;;;;;;;7.30;100.00;101865.31;5051856;28;20061;-68
2021/12/18 04:31:39;;;;;;;12.35;2.20;;;;;;;7.32;100.00;101866.28;5052399;28;20084;-69
2021/12/18 04:34:09;;;;;;;4.70;1.98;;;;;;;7.33;100.00;101862.06;5051277;28;20107;-68
2021/12/18 04:36:38;;;;;;;3.88;2.05;;;;;;;7.33;100.00;101856.91;5051884;28;20084;-67
2021/12/18 04:39:06;;;;;;;4.63;2.28;;;;;;;7.37;100.00;101850.25;5051866;28;20076;-67
2021/12/18 04:41:41;;;;;;;8.60;2.38;;;;;;;7.39;100.00;101851.22;5052104;28;20084;-68
2021/12/18 04:44:10;;;;;;;5.88;2.30;;;;;;;7.40;100.00;101837.53;5051975;28;20137;-67
2021/12/18 04:46:39;;;;;;;3.83;2.42;;;;;;;7.39;100.00;101836.66;5052770;28;20167;-67
2021/12/18 04:49:09;;;;;;;3.60;1.90;;;;;;;7.38;100.00;101826.28;5057299;28;20087;-67
2021/12/18 04:51:38;;;;;;;4.10;2.20;;;;;;;7.39;100.00;101822.91;5040419;28;20045;-67
2021/12/18 04:54:06;;;;;;;4.38;1.95;;;;;;;7.39;100.00;101821.19;5052243;28;20045;-68
2021/12/18 04:56:35;;;;;;;4.03;2.47;;;;;;;7.40;100.00;101828.16;5052109;28;20045;-67
2021/12/18 04:59:05;;;;;;;7.80;2.28;;;;;;;7.40;100.00;101822.09;5051552;28;20107;-67
2021/12/18 05:01:38;;;;;;;3.67;2.30;;;;;;;7.39;100.00;101831.50;5050880;28;20076;-67
2021/12/18 05:04:09;;;;;;;3.72;1.92;;;;;;;7.38;100.00;101839.16;5052109;28;20534;-66
2021/12/18 05:06:42;;;;;;;5.05;2.55;;;;;;;7.39;100.00;101835.78;5051470;28;20052;-67
2021/12/18 05:09:11;;;;;;;5.78;2.50;;;;;;;7.38;100.00;101836.59;5053365;28;20056;-67
2021/12/18 05:11:40;;;;;;;6.63;2.63;;;;;;;7.36;100.00;101841.63;5052322;28;20085;-68
2021/12/18 05:14:09;;;;;;;3.58;1.85;;;;;;;7.33;100.00;101837.19;5052368;28;20052;-68
2021/12/18 05:16:37;;;;;;;3.17;2.22;;;;;;;7.32;100.00;101837.97;5051949;28;20049;-67
2021/12/18 05:19:06;;;;;;;4.05;2.30;;;;;;;7.32;100.00;101839.66;5051338;28;20072;-66
2021/12/18 05:21:35;;;;;;;3.33;2.15;;;;;;;7.32;100.00;101845.69;5052455;28;20063;-66
2021/12/18 05:24:06;;;;;;;6.15;3.47;;;;;;;7.32;100.00;101848.28;5051300;28;20513;-67
2021/12/18 05:26:34;;;;;;;4.30;2.45;;;;;;;7.30;100.00;101842.13;5051741;28;20049;-67
2021/12/18 05:29:03;;;;;;;9.27;2.30;;;;;;;7.26;100.00;101840.19;5051462;28;20060;-66
2021/12/18 05:31:31;;;;;;;4.53;2.47;;;;;;;7.26;100.00;101840.19;5050593;28;20077;-67
2021/12/18 05:34:02;;;;;;;6.75;2.20;;;;;;;7.28;100.00;101841.19;5051031;28;20106;-67
2021/12/18 05:36:40;;;;;;;3.90;2.03;;;;;;;7.28;100.00;101845.41;5051393;28;20053;-69
2021/12/18 05:39:12;;;;;;;2.80;2.00;;;;;;;7.27;100.00;101830.78;5051029;28;20494;-67
2021/12/18 05:41:41;;;;;;;2.80;2.38;;;;;;;7.25;100.00;101833.25;5051358;28;20469;-69
2021/12/18 05:44:09;;;;;;;6.00;2.17;;;;;;;7.21;100.00;101830.41;5051180;28;20084;-69
2021/12/18 05:46:38;;;;;;;5.38;2.15;;;;;;;7.17;100.00;101829.34;5054278;28;20057;-68
2021/12/18 05:49:06;;;;;;;4.95;2.20;;;;;;;7.17;100.00;101829.34;5052485;28;20092;-68
2021/12/18 05:51:35;;;;;;;3.72;1.95;;;;;;;7.16;100.00;101821.53;5037275;28;20092;-67
2021/12/18 05:54:04;;;;;;;3.92;2.42;;;;;;;7.17;100.00;101823.28;5051328;28;20044;-66
2021/12/18 05:56:34;;;;;;;4.38;2.35;;;;;;;7.17;100.00;101821.63;5050811;28;20052;-68
2021/12/18 05:59:03;;;;;;;4.35;2.40;;;;;;;7.16;100.00;101814.69;5050923;28;20045;-68
2021/12/18 06:01:32;;;;;;;4.50;2.28;;;;;;;7.13;100.00;101815.38;5050742;28;20049;-66
2021/12/18 06:04:01;;;;;;;5.53;2.50;;;;;;;7.11;100.00;101810.94;5050507;28;20486;-67
2021/12/18 06:06:30;;;;;;;4.68;2.58;;;;;;;7.11;100.00;101809.25;5050551;28;20124;-68
2021/12/18 06:08:59;;;;;;;5.32;2.67;;;;;;;7.09;100.00;101815.13;5050515;28;20228;-67
2021/12/18 06:11:31;;;;;;;5.13;2.00;;;;;;;7.09;100.00;101812.53;5050616;28;20049;-69
2021/12/18 06:14:01;;;;;;;3.63;2.23;;;;;;;7.13;100.00;101814.50;5050348;28;20501;-68
2021/12/18 06:16:29;;;;;;;4.55;2.38;;;;;;;7.15;100.00;101820.66;5050223;28;20290;-70
2021/12/18 06:18:58;;;;;;;4.97;2.05;;;;;;;7.18;100.00;101813.09;5050048;28;20504;-67
2021/12/18 06:21:26;;;;;;;3.95;2.00;;;;;;;7.20;100.00;101808.94;5052226;28;20119;-68
2021/12/18 06:23:56;;;;;;;2.08;1.75;;;;;;;7.20;100.00;101803.78;5049918;28;20084;-68
2021/12/18 06:26:27;;;;;;;4.68;2.22;;;;;;;7.21;100.00;101795.25;5050430;28;20095;-68
2021/12/18 06:28:56;;;;;;;3.38;2.17;;;;;;;7.21;100.00;101796.94;5050354;28;20057;-67
2021/12/18 06:31:27;;;;;;;4.30;2.05;;;;;;;7.21;100.00;101794.38;5050505;28;20486;-67
2021/12/18 06:33:55;;;;;;;4.35;2.70;;;;;;;7.25;100.00;101802.38;5050640;28;20052;-67
2021/12/18 06:36:24;;;;;;;4.30;2.10;;;;;;;7.27;100.00;101793.03;5050120;28;20131;-67
2021/12/18 06:38:52;;;;;;;4.70;2.63;;;;;;;7.29;100.00;101790.56;5050007;28;20692;-68
2021/12/18 06:41:21;;;;;;;2.50;2.13;;;;;;;7.29;100.00;101788.88;5036719;28;20110;-68
2021/12/18 06:43:49;;;;;;;4.47;2.58;;;;;;;7.30;100.00;101787.19;5054060;28;20061;-67
2021/12/18 06:46:18;;;;;;;7.88;2.33;;;;;;;7.31;100.00;101787.28;5057467;28;20057;-67
2021/12/18 06:48:48;;;;;;;3.35;2.47;;;;;;;7.32;100.00;101789.06;5054811;28;20057;-67
2021/12/18 06:51:18;;;;;;;5.18;2.60;;;;;;;7.38;100.00;101785.09;5054267;28;20461;-69
2021/12/18 06:53:46;;;;;;;3.28;2.50;;;;;;;7.41;100.00;101780.09;5053840;28;20080;-67
2021/12/18 06:56:15;;;;;;;3.22;2.25;;;;;;;7.37;100.00;101771.31;5054281;28;20102;-67
2021/12/18 06:58:43;;;;;;;4.22;2.45;;;;;;;7.35;100.00;101772.91;5054546;28;20083;-67
2021/12/18 07:01:12;;;;;;;2.40;1.70;;;;;;;7.32;100.00;101768.47;5041837;28;20507;-67
2021/12/18 07:03:40;;;;;;;5.68;2.60;;;;;;;7.36;100.00;101766.09;5054459;28;20045;-67
2021/12/18 07:06:10;;;;;;;3.60;2.03;;;;;;;7.33;100.00;101770.25;5054951;28;20418;-67
2021/12/18 07:08:39;;;;;;;4.15;2.53;;;;;;;7.36;100.00;101773.81;5054356;28;20715;-68
2021/12/18 07:11:08;;;;;;;3.00;2.15;;;;;;;7.29;100.00;101758.00;5054899;28;20075;-67
2021/12/18 07:13:36;;;;;;;5.72;2.92;;;;;;;7.30;100.00;101766.59;5054027;28;20637;-68
2021/12/18 07:16:05;;;;;;;7.53;2.58;;;;;;;7.32;100.00;101763.31;5054252;28;20052;-67
2021/12/18 07:18:34;;;;;;;4.90;2.28;;;;;;;7.28;100.00;101766.53;5054483;28;20422;-67
2021/12/18 07:21:03;;;;;;;4.45;2.20;;;;;;;7.29;100.00;101768.28;5055928;27;20118;-68
2021/12/18 07:23:33;;;;;;;3.30;2.03;;;;;;;7.33;100.00;101759.94;5054128;28;20045;-68
2021/12/18 07:26:01;;;;;;;3.88;2.42;;;;;;;7.36;100.00;101758.34;5054225;28;20094;-68
2021/12/18 07:28:30;;;;;;;5.30;2.10;;;;;;;7.36;100.00;101763.50;5053919;28;20048;-68
2021/12/18 07:30:58;;;;;;;4.78;2.25;;;;;;;7.36;100.00;101763.50;5040231;28;20103;-68
2021/12/18 07:33:27;;;;;;;3.22;2.30;;;;;;;7.39;100.00;101763.69;5053253;28;20045;-67
2021/12/18 07:35:55;;;;;;;4.63;2.63;;;;;;;7.40;100.00;101765.44;5053692;28;20457;-68
2021/12/18 07:38:24;;;;;;;5.20;2.55;;;;;;;7.41;100.00;101760.38;5053771;28;20056;-68
2021/12/18 07:40:54;;;;;;;5.55;2.67;;;;;;;7.43;100.00;101760.50;5054295;28;20052;-68
2021/12/18 07:43:22;;;;;;;4.18;2.53;;;;;;;7.42;100.00;101743.25;5057227;28;20047;-68
2021/12/18 07:45:51;;;;;;;4.20;2.30;;;;;;;7.42;100.00;101741.59;5053645;28;20110;-68
2021/12/18 07:48:19;;;;;;;3.60;2.30;;;;;;;7.42;100.00;101744.16;5053737;28;20132;-68
2021/12/18 07:50:48;;;;;;;5.25;2.53;;;;;;;7.42;100.00;101743.25;5051610;28;20049;-68
2021/12/18 07:53:17;;;;;;;6.95;2.53;;;;;;;7.43;100.00;101750.19;5033075;28;20088;-68
2021/12/18 07:55:45;;;;;;;3.92;1.83;;;;;;;7.44;100.00;101744.22;5046494;28;20128;-68
2021/12/18 07:58:15;;;;;;;7.35;2.38;;;;;;;7.42;100.00;101739.00;5053041;28;20081;-68
2021/12/18 08:00:44;;;;;;;4.20;2.13;;;;;;;7.44;100.00;101733.94;5053034;28;20085;-67
2021/12/18 08:03:13;;;;;;;5.78;2.17;;;;;;;7.46;100.00;101740.06;5052774;28;20041;-68
2021/12/18 08:05:41;;;;;;;4.20;1.92;;;;;;;7.38;100.00;101723.28;5053081;28;20087;-68
2021/12/18 08:08:10;;;;;;;3.55;1.98;;;;;;;7.45;100.00;101728.00;5052903;28;20091;-68
2021/12/18 08:10:38;;;;;;;3.72;1.92;;;;;;;7.47;100.00;101723.81;5047976;28;20069;-68
2021/12/18 08:13:07;;;;;;;6.72;1.92;;;;;;;7.49;100.00;101719.63;5047596;28;20102;-67
2021/12/18 08:15:37;;;;;;;3.67;1.95;;;;;;;7.45;100.00;101718.56;5053111;28;20099;-67
2021/12/18 08:18:07;;;;;;;12.65;1.90;;;;;;;7.41;100.00;101708.88;5053230;28;20084;-67
2021/12/18 08:20:36;;;;;;;2.25;1.50;;;;;;;7.34;100.00;101710.22;5053536;28;20049;-68
2021/12/18 08:23:05;;;;;;;1.63;1.13;;;;;;;7.31;100.00;101712.63;5052946;28;20516;-67
2021/12/18 08:25:35;;;;;;;3.15;1.70;;;;;;;7.30;100.00;101708.25;5052601;28;20110;-66
2021/12/18 08:28:05;;;;;;;3.65;1.40;;;;;;;7.31;100.00;101697.19;5045101;28;20057;-67
2021/12/18 08:30:38;;;;;;;2.25;1.30;;;;;;;7.32;100.00;101690.34;5047647;28;20115;-67
2021/12/18 08:33:07;;;;;;;2.53;1.25;;;;;;;7.33;100.00;101693.00;5045383;28;20045;-67
2021/12/18 08:35:36;;;;;;;1.73;1.08;;;;;;;7.36;100.00;101694.00;5046622;28;20065;-68
2021/12/18 08:38:06;;;;;;;2.92;1.30;;;;;;;7.37;100.00;101694.06;5052775;28;20076;-68
2021/12/18 08:40:36;;;;;;;2.10;0.98;;;;;;;7.37;100.00;101691.47;5055419;28;20107;-67
2021/12/18 08:43:05;;;;;;;1.75;0.90;;;;;;;7.40;100.00;101693.34;5052304;28;20084;-68
2021/12/18 08:45:50;;;;;;;2.80;1.23;;;;;;;7.41;100.00;101690.00;5052544;28;20055;-67
2021/12/18 08:48:18;;;;;;;1.70;1.00;;;;;;;7.39;100.00;101695.03;5052355;28;20049;-68
2021/12/18 08:50:47;;;;;;;3.22;1.00;;;;;;;7.41;100.00;101697.72;5051944;28;20045;-67
2021/12/18 08:53:15;;;;;;;2.70;0.68;;;;;;;7.42;100.00;101691.75;5052250;28;20049;-67
2021/12/18 08:55:44;;;;;;;1.45;0.88;;;;;;;7.35;100.00;101680.22;5052338;28;20047;-68
2021/12/18 08:58:13;;;;;;;0.85;0.68;;;;;;;7.39;100.00;101681.28;5052402;28;20057;-66
2021/12/18 09:00:43;;;;;;;1.02;0.93;;;;;;;7.39;100.00;101674.44;5053036;28;20068;-66
2021/12/18 09:03:11;;;;;;;1.67;0.75;;;;;;;7.33;100.00;101672.41;5052114;28;20041;-68
2021/12/18 09:05:40;;;;;;;3.05;0.90;;;;;;;7.27;100.00;101668.59;5052550;28;20114;-67
2021/12/18 09:08:09;;;;;;;1.38;0.90;;;;;;;7.19;100.00;101665.56;5051838;28;20696;-67
2021/12/18 09:10:38;;;;;;;1.33;0.80;;;;;;;7.20;100.00;101667.34;5041386;28;20044;-67
2021/12/18 09:13:06;;;;;;;1.05;0.70;;;;;;;7.18;100.00;101666.38;5052156;28;20048;-67
2021/12/18 09:15:35;;;;;;;0.52;0.50;;;;;;;7.19;100.00;101668.13;5038628;28;20137;-67
2021/12/18 09:18:05;;;;;;;0.95;0.50;;;;;;;7.21;100.00;101671.69;5052329;28;20056;-67
2021/12/18 09:20:33;;;;;;;1.13;0.50;;;;;;;7.23;100.00;101672.66;5053377;28;20132;-67
2021/12/18 09:23:02;;;;;;;1.13;0.70;;;;;;;7.24;100.00;101661.59;5051960;28;20041;-67
2021/12/18 09:25:31;;;;;;;1.25;0.63;;;;;;;7.23;100.00;101654.66;5051634;28;20495;-67
2021/12/18 09:27:59;;;;;;;1.10;0.50;;;;;;;7.23;100.00;101658.91;5052059;28;20111;-68
2021/12/18 09:30:28;;;;;;;1.42;0.60;;;;;;;7.21;100.00;101652.78;5052165;28;20057;-68
2021/12/18 09:32:56;;;;;;;1.75;0.77;;;;;;;7.23;100.00;101640.91;5051506;28;20169;-68
2021/12/18 09:35:27;;;;;;;2.15;0.77;;;;;;;7.22;100.00;101637.44;5051468;28;20063;-67
2021/12/18 09:37:55;;;;;;;1.48;0.73;;;;;;;7.25;100.00;101639.31;5052698;28;20045;-67
2021/12/18 09:40:25;;;;;;;1.13;0.63;;;;;;;7.23;100.00;101634.06;5054498;28;20133;-68
2021/12/18 09:42:54;;;;;;;2.17;1.13;;;;;;;7.20;100.00;101620.16;5037133;28;20049;-67
2021/12/18 09:45:24;;;;;;;2.05;0.90;;;;;;;7.20;100.00;101628.75;5050813;28;20526;-67
2021/12/18 09:47:52;;;;;;;1.52;0.60;;;;;;;7.24;100.00;101622.97;5051387;28;20056;-67
2021/12/18 09:50:23;;;;;;;1.13;0.60;;;;;;;7.23;100.00;101623.75;5051737;28;20114;-67
2021/12/18 09:52:54;;;;;;;1.23;0.80;;;;;;;7.24;100.00;101614.34;5050764;28;20072;-67
2021/12/18 09:55:22;;;;;;;1.00;0.70;;;;;;;7.27;100.00;101617.13;5051720;28;20134;-67
2021/12/18 09:57:51;;;;;;;1.40;1.05;;;;;;;7.27;100.00;101614.53;5051083;28;20111;-68
2021/12/18 10:00:23;;;;;;;1.60;0.95;;;;;;;7.30;100.00;101610.44;5051580;28;20053;-67
2021/12/18 10:02:52;;;;;;;1.98;0.63;;;;;;;7.28;100.00;101612.06;5050934;28;20052;-66
2021/12/18 10:05:22;;;;;;;1.88;0.40;;;;;;;7.30;100.00;101609.56;5051792;28;20059;-67
2021/12/18 10:08:15;;;;;;;1.40;0.57;;;;;;;7.27;100.00;101599.97;5051285;28;20053;-67
2021/12/18 10:11:05;;;;;;;0.88;0.60;;;;;;;7.27;100.00;101599.97;5046993;28;20048;-67
2021/12/18 10:13:52;;;;;;;0.68;0.57;;;;;;;7.22;100.00;101601.41;5050730;28;20092;-67
2021/12/18 10:16:21;;;;;;;1.20;0.52;;;;;;;7.17;100.00;101589.06;5050687;28;20049;-67
2021/12/18 10:18:50;;;;;;;0.80;0.40;;;;;;;7.23;100.00;101594.56;5050897;28;20107;-67
2021/12/18 10:21:20;;;;;;;1.75;0.85;;;;;;;7.24;100.00;101588.59;5051630;28;20057;-67
2021/12/18 10:23:53;;;;;;;1.10;0.60;;;;;;;7.27;100.00;101593.94;5047640;28;20049;-68
2021/12/18 10:26:31;;;;;;;;;;;;;;;7.26;100.00;101593.06;5041243;28;20057;-67
2021/12/18 10:28:59;;;;;;;1.20;0.52;;;;;;;7.18;100.00;101586.59;5050611;28;19921;-67
2021/12/18 10:31:45;;;;;;;0.55;0.50;;;;;;;7.25;100.00;101586.13;5051194;28;20076;-67
2021/12/18 10:34:21;;;;;;;2.03;0.70;;;;;;;7.28;100.00;101578.59;5050418;28;20099;-66
2021/12/18 10:37:12;;;;;;;3.30;0.60;;;;;;;7.29;100.00;101572.63;5053835;28;20110;-67
2021/12/18 10:39:44;;;;;;;0.65;0.38;;;;;;;7.27;100.00;101569.09;5039981;28;20049;-69
2021/12/18 10:42:24;;;;;;;1.70;0.77;;;;;;;7.27;100.00;101568.22;5050421;28;20088;-67
2021/12/18 10:45:03;;;;;;;0.60;0.47;;;;;;;7.28;100.00;101564.81;5050842;28;21022;-67
2021/12/18 10:47:45;;;;;;;0.60;0.40;;;;;;;7.27;100.00;101558.78;5050521;28;20132;-68
2021/12/18 10:50:23;;;;;;;1.58;0.65;;;;;;;7.29;100.00;101552.03;5050568;28;20053;-67
2021/12/18 10:52:57;;;;;;;2.10;0.60;;;;;;;7.31;100.00;101560.75;5049756;28;20052;-68
2021/12/18 10:55:41;;;;;;;0.90;0.60;;;;;;;7.30;100.00;101551.22;5050886;28;20459;-68
2021/12/18 10:58:11;;;;;;;0.50;0.30;;;;;;;7.30;100.00;101543.50;5050235;28;20060;-68
2021/12/18 11:00:48;;;;;;;0.55;0.43;;;;;;;7.23;100.00;101536.25;5050625;28;20121;-67
2021/12/18 11:03:19;;;;;;;0.85;0.45;;;;;;;7.30;100.00;101540.94;5050121;28;20049;-67
2021/12/18 11:06:11;;;;;;;0.25;0.20;;;;;;;7.28;100.00;101536.50;5050600;28;20049;-67
2021/12/18 11:09:01;;;;;;;0.95;0.50;;;;;;;7.26;100.00;101530.38;5044818;28;20106;-67
2021/12/18 11:14:20;;;;;;;0.60;0.30;;;;;;;7.32;100.00;101531.59;5051846;28;20071;-68
2021/12/18 11:16:51;;;;;;;2.45;0.52;;;;;;;7.37;100.00;101538.69;5051709;28;20132;-67
2021/12/18 11:19:21;;;;;;;1.83;0.50;;;;;;;7.33;100.00;101527.38;5050828;28;20135;-67
2021/12/18 11:21:52;;;;;;;0.63;0.40;;;;;;;7.36;100.00;101522.38;5051081;28;20550;-68
2021/12/18 11:24:23;;;;;;;0.68;0.25;;;;;;;7.40;100.00;101520.84;5050382;28;20045;-67
2021/12/18 11:27:01;;;;;;;1.17;0.40;;;;;;;7.43;100.00;101523.59;5050684;28;20110;-68
2021/12/18 11:29:35;;;;;;;0.30;0.30;;;;;;;7.44;100.00;101528.81;5048536;28;20132;-68
2021/12/18 11:32:04;;;;;;;0.38;0.22;;;;;;;7.45;100.00;101516.84;5045462;28;20469;-67
2021/12/18 11:34:33;;;;;;;0.68;0.30;;;;;;;7.48;100.00;101524.72;5056693;28;20067;-68
2021/12/18 11:37:01;;;;;;;0.30;0.20;;;;;;;7.50;100.00;101505.97;5056046;28;20402;-68
2021/12/18 11:39:33;;;;;;;0.30;0.20;;;;;;;7.51;100.00;101505.19;5052741;28;20087;-67
2021/12/18 11:42:04;;;;;;;0.70;0.20;;;;;;;7.53;100.00;101502.69;5053384;28;20613;-67
2021/12/18 11:44:36;;;;;;;1.25;0.38;;;;;;;7.57;100.00;101502.03;5040108;28;20092;-69
2021/12/18 11:47:27;;;;;;;0.77;0.20;;;;;;;7.57;100.00;101502.03;5044901;28;20057;-68
2021/12/18 11:49:58;;;;;;;0.47;0.15;;;;;;;7.59;100.00;101508.16;5048149;28;20049;-68
2021/12/18 11:52:27;;;;;;;0.45;0.25;;;;;;;7.62;100.00;101489.41;5044242;28;20060;-68
2021/12/18 11:54:57;;;;;;;1.00;0.25;;;;;;;7.66;100.00;101496.50;5045998;28;20041;-67
2021/12/18 11:57:43;;;;;;;0.55;0.20;;;;;;;7.68;100.00;101493.19;5053935;28;20080;-68
2021/12/18 12:00:37;;;;;;;0.50;0.20;;;;;;;7.67;100.00;101486.28;5053705;28;20467;-69
2021/12/18 12:03:07;;;;;;;0.30;0.20;;;;;;;7.69;100.00;101492.38;5042595;28;20041;-68
2021/12/18 12:05:42;;;;;;;1.08;0.20;;;;;;;7.68;100.00;101493.19;5053667;28;20049;-68
2021/12/18 12:08:37;;;;;;;1.10;0.22;;;;;;;7.72;100.00;101473.66;5053381;28;20106;-68
2021/12/18 12:11:24;;;;;;;0.63;0.30;;;;;;;7.73;100.00;101484.00;5053488;28;20056;-68
2021/12/18 12:14:06;;;;;;;2.55;0.30;;;;;;;7.73;100.00;101476.28;5040497;28;20052;-68
2021/12/18 12:17:08;;;;;;;0.82;0.30;;;;;;;7.76;100.00;101471.31;5052522;28;20128;-69
2021/12/18 12:19:52;;;;;;;0.50;0.20;;;;;;;7.72;100.00;101460.78;5043667;28;20057;-70
2021/12/18 12:22:48;;;;;;;0.30;0.20;;;;;;;7.71;100.00;101464.13;5052535;28;20290;-69